X  Luk Metar data     EKYT Aalborg Airport
Temperatur
4°C Temperatur
1°C Dugpunkt
81% Fugtighed



Vind
1 M/S
3 MPT
5 KM/T
3 KNOB



20°
NNØ
Nuværende forhold

Delvis skyet Delvis skyet
Tryk 1028.92 (hPa) - 30.38 (inHg)
Sigt 6.2 (mil) - 10 (km)
Lufthavn
Lufthavnskode EKYT

Lokation: Aalborg Airport
Afstand: 54 (km)

Metar:
EKYT 162250Z AUTO 02003KT 9999 FEW085/// BKN120/// 04/01 Q1029

Tid: 17-04-2021 00:50 CEST